createdAt,value
2022-11-27T00:02:00.435Z,44.92
2022-11-27T00:04:45.675Z,44.83
2022-11-27T00:07:31.204Z,44.63
2022-11-27T00:10:16.474Z,44.86
2022-11-27T00:13:01.828Z,44.76
2022-11-27T00:15:47.339Z,44.74
2022-11-27T00:18:33.461Z,44.60
2022-11-27T00:21:25.636Z,44.83
2022-11-27T00:24:11.916Z,44.81
2022-11-27T00:26:57.440Z,44.97
2022-11-27T00:29:43.243Z,45.12
2022-11-27T00:32:28.804Z,45.14
2022-11-27T00:35:14.151Z,45.33
2022-11-27T00:37:59.560Z,45.41
2022-11-27T00:40:44.793Z,45.38
2022-11-27T00:43:30.196Z,45.33
2022-11-27T00:46:17.537Z,45.42
2022-11-27T00:49:05.546Z,45.27
2022-11-27T00:51:51.019Z,44.99
2022-11-27T00:54:36.532Z,45.03
2022-11-27T00:57:21.709Z,45.00
2022-11-27T01:00:07.906Z,44.98
2022-11-27T01:02:53.520Z,44.90
2022-11-27T01:05:38.620Z,44.58
2022-11-27T01:08:24.019Z,44.81
2022-11-27T01:11:14.832Z,44.66
2022-11-27T01:14:03.075Z,44.51
2022-11-27T01:16:48.262Z,44.31
2022-11-27T01:19:33.501Z,44.46
2022-11-27T01:22:18.936Z,44.39
2022-11-27T01:25:05.687Z,44.14
2022-11-27T01:27:50.947Z,44.08
2022-11-27T01:30:39.531Z,44.17
2022-11-27T01:33:25.507Z,44.11
2022-11-27T01:36:13.481Z,43.92
2022-11-27T01:39:00.115Z,43.92
2022-11-27T01:41:47.149Z,43.85
2022-11-27T01:44:32.204Z,43.96
2022-11-27T01:47:29.563Z,43.86
2022-11-27T01:50:27.143Z,43.85
2022-11-27T01:53:18.796Z,43.92
2022-11-27T01:56:05.561Z,43.97
2022-11-27T01:58:51.800Z,43.92
2022-11-27T02:01:37.255Z,43.98
2022-11-27T02:04:22.544Z,43.92
2022-11-27T02:07:07.818Z,43.74
2022-11-27T02:09:53.177Z,43.77
2022-11-27T02:12:56.570Z,43.85
2022-11-27T02:15:45.123Z,43.58
2022-11-27T02:18:55.043Z,43.54
2022-11-27T02:22:09.972Z,43.63
2022-11-27T02:25:13.426Z,43.45
2022-11-27T02:28:08.166Z,43.37
2022-11-27T02:31:04.938Z,43.15
2022-11-27T02:33:55.909Z,43.15
2022-11-27T02:36:49.585Z,43.12
2022-11-27T02:39:41.105Z,42.99
2022-11-27T02:42:30.091Z,42.97
2022-11-27T02:45:22.487Z,43.00
2022-11-27T02:48:09.809Z,42.90
2022-11-27T02:50:56.126Z,42.94
2022-11-27T02:53:58.059Z,42.76
2022-11-27T02:56:45.148Z,42.71
2022-11-27T02:59:33.503Z,42.56
2022-11-27T03:02:26.859Z,42.54
2022-11-27T03:05:18.987Z,42.71
2022-11-27T03:08:14.089Z,43.00
2022-11-27T03:11:11.696Z,43.22
2022-11-27T03:14:00.789Z,42.93
2022-11-27T03:16:58.333Z,43.02
2022-11-27T03:19:54.761Z,42.96
2022-11-27T03:22:40.201Z,42.86
2022-11-27T03:25:25.811Z,42.88
2022-11-27T03:28:13.978Z,42.70
2022-11-27T03:30:59.622Z,42.70
2022-11-27T03:33:44.928Z,43.51
2022-11-27T03:36:30.140Z,44.35
2022-11-27T03:39:15.777Z,44.73
2022-11-27T03:42:28.821Z,45.63
2022-11-27T03:45:14.488Z,45.97
2022-11-27T03:48:21.428Z,46.10
2022-11-27T03:51:25.158Z,46.21
2022-11-27T03:54:25.817Z,46.55
2022-11-27T03:57:31.473Z,46.66
2022-11-27T04:00:17.466Z,46.82
2022-11-27T04:03:03.515Z,46.63
2022-11-27T04:05:49.057Z,46.94
2022-11-27T04:08:34.331Z,46.98
2022-11-27T04:11:19.812Z,47.06
2022-11-27T04:14:05.968Z,47.04
2022-11-27T04:16:51.424Z,47.31
2022-11-27T04:19:36.760Z,47.36
2022-11-27T04:22:21.917Z,47.81
2022-11-27T04:25:07.662Z,48.38
2022-11-27T04:27:52.979Z,48.80
2022-11-27T04:30:38.149Z,49.07
2022-11-27T04:33:23.519Z,49.14
2022-11-27T04:36:08.866Z,49.22
2022-11-27T04:38:54.129Z,49.08
2022-11-27T04:41:39.545Z,49.23
2022-11-27T04:44:24.787Z,49.21
2022-11-27T04:47:10.047Z,49.13
2022-11-27T04:49:55.267Z,49.38
2022-11-27T04:52:40.599Z,49.36
2022-11-27T04:55:25.927Z,49.43
2022-11-27T04:58:11.169Z,49.47
2022-11-27T05:00:56.361Z,49.62
2022-11-27T05:03:41.939Z,49.61
2022-11-27T05:06:27.329Z,49.52
2022-11-27T05:09:12.735Z,49.48
2022-11-27T05:11:58.050Z,49.54
2022-11-27T05:14:43.405Z,49.54
2022-11-27T05:17:28.565Z,49.79
2022-11-27T05:20:13.787Z,49.66
2022-11-27T05:22:59.312Z,49.94
2022-11-27T05:25:44.948Z,49.98
2022-11-27T05:28:30.086Z,50.07
2022-11-27T05:31:15.223Z,50.02
2022-11-27T05:34:00.784Z,50.11
2022-11-27T05:36:46.663Z,50.14
2022-11-27T05:39:32.239Z,50.04
2022-11-27T05:42:17.408Z,50.24
2022-11-27T05:45:04.681Z,50.08
2022-11-27T05:47:50.249Z,50.02
2022-11-27T05:50:35.466Z,49.97
2022-11-27T05:53:20.725Z,49.89
2022-11-27T05:56:12.176Z,49.82
2022-11-27T05:58:57.859Z,50.48
2022-11-27T06:01:43.643Z,50.83
2022-11-27T06:04:29.112Z,51.04
2022-11-27T06:07:14.796Z,51.16
2022-11-27T06:10:00.496Z,50.91
2022-11-27T06:12:46.526Z,51.01
2022-11-27T06:15:32.035Z,51.17
2022-11-27T06:18:17.930Z,51.30
2022-11-27T06:21:13.210Z,51.44
2022-11-27T06:23:58.309Z,51.27
2022-11-27T06:26:44.375Z,51.49
2022-11-27T06:29:31.440Z,51.69
2022-11-27T06:32:17.056Z,51.80
2022-11-27T06:35:02.629Z,52.05
2022-11-27T06:37:48.733Z,52.15
2022-11-27T06:40:34.496Z,52.12
2022-11-27T06:43:20.079Z,52.12
2022-11-27T06:46:07.543Z,52.18
2022-11-27T06:48:54.758Z,51.97
2022-11-27T06:51:40.268Z,51.84
2022-11-27T06:54:25.745Z,43.09
2022-11-27T06:57:11.459Z,47.77
2022-11-27T06:59:56.876Z,48.36
2022-11-27T07:02:42.241Z,48.54
2022-11-27T07:05:29.888Z,48.88
2022-11-27T07:08:15.616Z,49.04
2022-11-27T07:11:10.246Z,49.28
2022-11-27T07:13:57.672Z,49.18
2022-11-27T07:16:43.730Z,49.16
2022-11-27T07:19:29.192Z,49.08
2022-11-27T07:22:16.267Z,49.23
2022-11-27T07:25:01.890Z,49.26
2022-11-27T07:27:47.269Z,49.50
2022-11-27T07:30:32.559Z,49.58
2022-11-27T07:33:18.077Z,49.58
2022-11-27T07:36:10.966Z,49.76
2022-11-27T07:38:56.759Z,49.75
2022-11-27T07:41:42.337Z,49.48
2022-11-27T07:44:27.543Z,49.71
2022-11-27T07:47:12.895Z,50.01
2022-11-27T07:50:00.436Z,50.05
2022-11-27T07:52:46.044Z,50.04
2022-11-27T07:55:31.364Z,50.22
2022-11-27T07:58:16.756Z,50.08
2022-11-27T08:01:07.194Z,50.16
2022-11-27T08:03:52.476Z,50.38
2022-11-27T08:06:37.962Z,50.45
2022-11-27T08:09:23.373Z,50.46
2022-11-27T08:12:08.657Z,50.69
2022-11-27T08:14:53.935Z,50.59
2022-11-27T08:17:40.169Z,50.68
2022-11-27T08:20:26.343Z,50.64
2022-11-27T08:23:11.687Z,50.42
2022-11-27T08:25:56.996Z,50.06
2022-11-27T08:28:42.439Z,49.82
2022-11-27T08:31:27.851Z,49.83
2022-11-27T08:34:13.339Z,49.84
2022-11-27T08:36:58.552Z,49.93
2022-11-27T08:39:43.845Z,50.10
2022-11-27T08:42:29.074Z,50.04
2022-11-27T08:45:14.744Z,50.11
2022-11-27T08:48:00.336Z,50.14
2022-11-27T08:50:47.598Z,50.06
2022-11-27T08:53:33.487Z,50.07
2022-11-27T08:56:21.482Z,49.87
2022-11-27T08:59:06.755Z,49.96
2022-11-27T09:01:51.967Z,49.83
2022-11-27T09:04:37.271Z,49.76
2022-11-27T09:07:22.782Z,50.03
2022-11-27T09:10:09.018Z,50.07
2022-11-27T09:12:56.230Z,50.03
2022-11-27T09:15:41.578Z,49.92
2022-11-27T09:18:26.970Z,49.73
2022-11-27T09:21:14.531Z,49.84
2022-11-27T09:24:01.893Z,49.57
2022-11-27T09:26:47.212Z,49.63
2022-11-27T09:29:34.598Z,49.53
2022-11-27T09:32:22.056Z,49.54
2022-11-27T09:35:07.760Z,49.56
2022-11-27T09:37:52.951Z,50.00
2022-11-27T09:40:45.518Z,50.63
2022-11-27T09:43:36.734Z,50.78
2022-11-27T09:46:31.865Z,50.80
2022-11-27T09:49:29.346Z,50.84
2022-11-27T09:52:27.652Z,51.17
2022-11-27T09:55:24.305Z,50.85
2022-11-27T09:58:19.010Z,50.58
2022-11-27T10:01:35.321Z,50.21
2022-11-27T10:04:25.845Z,50.33
2022-11-27T10:07:26.442Z,50.53
2022-11-27T10:10:33.294Z,50.59
2022-11-27T10:13:40.633Z,50.42
2022-11-27T10:16:45.047Z,50.90
2022-11-27T10:19:48.552Z,50.93
2022-11-27T10:22:44.850Z,50.90
2022-11-27T10:25:56.770Z,50.79
2022-11-27T10:28:47.028Z,51.00
2022-11-27T10:31:38.675Z,50.77
2022-11-27T10:34:45.054Z,50.71
2022-11-27T10:37:43.294Z,50.75
2022-11-27T10:41:03.760Z,50.81
2022-11-27T10:43:55.362Z,50.75
2022-11-27T10:46:41.196Z,50.96
2022-11-27T10:49:26.890Z,51.17
2022-11-27T10:52:14.917Z,50.49
2022-11-27T10:55:04.690Z,50.74
2022-11-27T10:58:02.840Z,50.29
2022-11-27T11:00:48.574Z,50.42
2022-11-27T11:03:35.199Z,50.46
2022-11-27T11:06:26.768Z,50.99
2022-11-27T11:09:18.883Z,51.10
2022-11-27T11:12:21.540Z,51.27
2022-11-27T11:15:11.664Z,51.09
2022-11-27T11:17:57.160Z,50.87
2022-11-27T11:20:47.761Z,51.55
2022-11-27T11:23:35.953Z,51.38
2022-11-27T11:26:21.717Z,51.44
2022-11-27T11:29:39.271Z,51.34
2022-11-27T11:32:32.380Z,51.24
2022-11-27T11:35:32.171Z,51.35
2022-11-27T11:38:22.513Z,51.14
2022-11-27T11:41:08.056Z,51.06
2022-11-27T11:43:54.741Z,50.79
2022-11-27T11:46:40.525Z,50.70
2022-11-27T11:49:27.929Z,50.87
2022-11-27T11:52:22.319Z,50.81
2022-11-27T11:55:19.141Z,50.68
2022-11-27T11:58:29.559Z,50.82
2022-11-27T12:01:30.605Z,50.83
2022-11-27T12:04:28.301Z,50.85
2022-11-27T12:07:35.798Z,50.71
2022-11-27T12:10:21.351Z,50.79
2022-11-27T12:13:55.405Z,50.64
2022-11-27T12:17:02.801Z,50.84
2022-11-27T12:20:07.120Z,50.81
2022-11-27T12:23:14.943Z,50.87
2022-11-27T12:26:26.757Z,50.94
2022-11-27T12:29:29.864Z,51.16
2022-11-27T12:32:31.081Z,51.11
2022-11-27T12:35:34.638Z,51.30
2022-11-27T12:38:32.537Z,51.08
2022-11-27T12:41:36.234Z,51.15
2022-11-27T12:44:49.184Z,51.24
2022-11-27T12:47:43.647Z,51.22
2022-11-27T12:51:01.592Z,51.76
2022-11-27T12:53:56.274Z,51.44
2022-11-27T12:56:58.016Z,51.77
2022-11-27T12:59:52.779Z,51.44
2022-11-27T13:02:46.563Z,51.46
2022-11-27T13:06:06.422Z,51.14
2022-11-27T13:09:02.660Z,51.27
2022-11-27T13:11:48.376Z,51.21
2022-11-27T13:14:38.602Z,51.27
2022-11-27T13:17:27.432Z,50.84
2022-11-27T13:20:18.058Z,50.98
2022-11-27T13:23:03.889Z,51.14
2022-11-27T13:25:54.861Z,52.15
2022-11-27T13:28:55.399Z,51.14
2022-11-27T13:31:44.047Z,51.41
2022-11-27T13:34:32.517Z,51.13
2022-11-27T13:37:40.222Z,51.34
2022-11-27T13:40:37.724Z,51.21
2022-11-27T13:43:32.661Z,51.05
2022-11-27T13:46:49.091Z,50.79
2022-11-27T13:49:37.998Z,50.81
2022-11-27T13:52:23.360Z,51.12
2022-11-27T13:55:09.956Z,51.23
2022-11-27T13:57:56.798Z,51.35
2022-11-27T14:00:44.929Z,51.40
2022-11-27T14:03:30.884Z,51.52
2022-11-27T14:06:16.326Z,51.59
2022-11-27T14:09:03.873Z,51.86
2022-11-27T14:11:50.985Z,51.77
2022-11-27T14:14:36.341Z,51.49
2022-11-27T14:17:36.817Z,51.58
2022-11-27T14:20:30.269Z,51.74
2022-11-27T14:23:34.195Z,51.50
2022-11-27T14:26:21.503Z,51.50
2022-11-27T14:29:12.099Z,51.61
2022-11-27T14:32:02.290Z,51.45
2022-11-27T14:34:48.823Z,51.39
2022-11-27T14:37:34.304Z,51.42
2022-11-27T14:40:50.626Z,51.36
2022-11-27T14:43:36.164Z,51.45
2022-11-27T14:46:22.310Z,51.55
2022-11-27T14:49:20.374Z,53.17
2022-11-27T14:52:13.388Z,51.98
2022-11-27T14:55:00.629Z,52.05
2022-11-27T14:57:48.351Z,52.32
2022-11-27T15:00:33.781Z,52.75
2022-11-27T15:03:19.503Z,52.09
2022-11-27T15:06:07.760Z,51.82
2022-11-27T15:09:15.961Z,52.10
2022-11-27T15:12:14.363Z,52.63
2022-11-27T15:15:07.811Z,52.51
2022-11-27T15:17:56.133Z,52.88
2022-11-27T15:20:45.113Z,52.89
2022-11-27T15:23:32.190Z,52.78
2022-11-27T15:26:35.739Z,53.18
2022-11-27T15:29:38.587Z,53.49
2022-11-27T15:32:26.889Z,53.90
2022-11-27T15:35:15.002Z,54.37
2022-11-27T15:38:09.191Z,55.20
2022-11-27T15:41:00.789Z,54.57
2022-11-27T15:43:45.910Z,54.06
2022-11-27T15:46:35.112Z,53.90
2022-11-27T15:49:22.182Z,53.70
2022-11-27T15:52:07.912Z,54.12
2022-11-27T15:54:55.589Z,54.58
2022-11-27T15:57:41.102Z,55.00
2022-11-27T16:00:26.758Z,52.95
2022-11-27T16:03:13.223Z,53.57
2022-11-27T16:06:07.503Z,53.50
2022-11-27T16:11:41.907Z,53.72
2022-11-27T16:14:27.638Z,53.72
2022-11-27T16:17:13.591Z,53.57
2022-11-27T16:19:59.122Z,53.76
2022-11-27T16:22:44.480Z,53.74
2022-11-27T16:25:31.944Z,54.22
2022-11-27T16:28:17.695Z,54.79
2022-11-27T16:31:09.999Z,54.63
2022-11-27T16:33:55.561Z,54.92
2022-11-27T16:36:43.844Z,55.02
2022-11-27T16:39:29.629Z,55.17
2022-11-27T16:42:15.615Z,55.30
2022-11-27T16:45:00.693Z,55.90
2022-11-27T16:47:46.044Z,55.18
2022-11-27T16:50:31.896Z,54.20
2022-11-27T16:53:17.637Z,54.35
2022-11-27T16:56:03.196Z,54.63
2022-11-27T16:58:48.653Z,54.95
2022-11-27T17:01:36.146Z,55.10
2022-11-27T17:04:21.877Z,55.16
2022-11-27T17:07:07.135Z,55.28
2022-11-27T17:09:52.657Z,55.32
2022-11-27T17:12:37.780Z,53.53
2022-11-27T17:15:23.599Z,53.92
2022-11-27T17:18:09.508Z,53.37
2022-11-27T17:21:00.848Z,53.12
2022-11-27T17:23:46.950Z,53.23
2022-11-27T17:26:34.606Z,53.16
2022-11-27T17:29:23.179Z,53.37
2022-11-27T17:32:10.009Z,53.51
2022-11-27T17:34:56.233Z,53.88
2022-11-27T17:37:43.624Z,53.80
2022-11-27T17:40:30.636Z,53.79
2022-11-27T17:43:16.217Z,54.04
2022-11-27T17:46:02.361Z,54.30
2022-11-27T17:48:47.823Z,54.73
2022-11-27T17:51:35.643Z,54.63
2022-11-27T17:54:21.166Z,54.70
2022-11-27T17:57:06.835Z,54.78
2022-11-27T17:59:52.684Z,55.01
2022-11-27T18:02:38.517Z,54.73
2022-11-27T18:05:24.089Z,54.72
2022-11-27T18:08:09.934Z,54.55
2022-11-27T18:10:55.553Z,54.53
2022-11-27T18:13:41.862Z,54.54
2022-11-27T18:16:34.951Z,54.50
2022-11-27T18:19:20.767Z,54.26
2022-11-27T18:22:08.335Z,54.24
2022-11-27T18:24:53.727Z,54.19
2022-11-27T18:27:39.742Z,54.12
2022-11-27T18:30:25.936Z,54.07
2022-11-27T18:33:11.665Z,54.15
2022-11-27T18:35:57.231Z,54.49
2022-11-27T18:38:44.872Z,54.34
2022-11-27T18:41:30.545Z,54.22
2022-11-27T18:44:17.201Z,54.19
2022-11-27T18:47:04.376Z,54.34
2022-11-27T18:49:50.252Z,54.11
2022-11-27T18:52:38.382Z,54.09
2022-11-27T18:55:23.548Z,54.35
2022-11-27T18:58:08.825Z,53.85
2022-11-27T19:00:57.407Z,53.61
2022-11-27T19:03:44.331Z,53.62
2022-11-27T19:06:30.259Z,53.07
2022-11-27T19:09:16.027Z,52.75
2022-11-27T19:12:01.908Z,52.83
2022-11-27T19:14:47.271Z,52.70
2022-11-27T19:17:32.842Z,52.44
2022-11-27T19:20:19.569Z,52.60
2022-11-27T19:23:06.050Z,52.70
2022-11-27T19:25:53.208Z,52.90
2022-11-27T19:28:39.048Z,53.07
2022-11-27T19:31:27.754Z,53.30
2022-11-27T19:34:13.744Z,53.28
2022-11-27T19:36:59.329Z,53.08
2022-11-27T19:39:44.598Z,53.36
2022-11-27T19:42:32.387Z,53.48
2022-11-27T19:45:22.728Z,53.10
2022-11-27T19:48:08.003Z,53.01
2022-11-27T19:50:53.351Z,52.11
2022-11-27T19:53:39.370Z,51.94
2022-11-27T19:56:27.782Z,52.05
2022-11-27T19:59:15.212Z,52.03
2022-11-27T20:02:00.555Z,51.96
2022-11-27T20:04:47.360Z,52.02
2022-11-27T20:07:32.659Z,51.90
2022-11-27T20:10:18.875Z,51.88
2022-11-27T20:13:04.373Z,51.98
2022-11-27T20:15:49.814Z,51.88
2022-11-27T20:18:36.028Z,51.90
2022-11-27T20:21:24.780Z,51.94
2022-11-27T20:24:10.519Z,52.40
2022-11-27T20:26:56.203Z,51.88
2022-11-27T20:29:42.163Z,51.48
2022-11-27T20:32:27.904Z,51.05
2022-11-27T20:35:12.990Z,50.82
2022-11-27T20:37:59.373Z,50.67
2022-11-27T20:40:45.248Z,50.58
2022-11-27T20:43:30.554Z,50.52
2022-11-27T20:46:16.922Z,50.06
2022-11-27T20:49:03.475Z,50.21
2022-11-27T20:51:50.472Z,50.67
2022-11-27T20:54:38.684Z,50.75
2022-11-27T20:57:25.054Z,51.09
2022-11-27T21:00:11.237Z,51.15
2022-11-27T21:02:56.799Z,51.14
2022-11-27T21:05:44.005Z,51.06
2022-11-27T21:08:29.499Z,51.01
2022-11-27T21:11:25.369Z,51.06
2022-11-27T21:14:13.973Z,50.98
2022-11-27T21:17:04.566Z,51.13
2022-11-27T21:19:51.452Z,50.96
2022-11-27T21:22:37.146Z,50.98
2022-11-27T21:25:25.487Z,50.72
2022-11-27T21:28:10.971Z,50.27
2022-11-27T21:31:17.858Z,50.09
2022-11-27T21:34:04.575Z,50.00
2022-11-27T21:36:50.955Z,49.92
2022-11-27T21:39:38.477Z,49.76
2022-11-27T21:42:24.247Z,49.75
2022-11-27T21:45:10.388Z,49.73
2022-11-27T21:47:55.985Z,49.69
2022-11-27T21:50:41.695Z,49.57
2022-11-27T21:53:30.087Z,49.76
2022-11-27T21:56:18.743Z,49.48
2022-11-27T21:59:05.671Z,49.41
2022-11-27T22:01:51.739Z,49.55
2022-11-27T22:04:37.156Z,49.56
2022-11-27T22:07:22.545Z,49.48
2022-11-27T22:10:08.709Z,49.26
2022-11-27T22:12:54.151Z,49.39
2022-11-27T22:15:39.426Z,49.39
2022-11-27T22:18:24.726Z,49.35
2022-11-27T22:21:12.263Z,49.40
2022-11-27T22:23:58.079Z,49.35
2022-11-27T22:26:43.396Z,49.39
2022-11-27T22:29:28.937Z,49.42
2022-11-27T22:32:14.278Z,49.54
2022-11-27T22:34:59.425Z,49.17
2022-11-27T22:37:44.732Z,49.18
2022-11-27T22:40:29.938Z,49.29
2022-11-27T22:43:15.739Z,49.07
2022-11-27T22:46:07.944Z,49.23
2022-11-27T22:48:58.368Z,49.06
2022-11-27T22:51:44.154Z,49.06
2022-11-27T22:54:29.673Z,49.00
2022-11-27T22:57:15.153Z,48.97
2022-11-27T23:00:01.382Z,48.88
2022-11-27T23:02:48.555Z,48.69
2022-11-27T23:05:33.912Z,48.78
2022-11-27T23:08:19.140Z,48.72
2022-11-27T23:11:05.872Z,48.74
2022-11-27T23:13:56.686Z,48.43
2022-11-27T23:16:42.112Z,48.54
2022-11-27T23:19:27.342Z,48.38
2022-11-27T23:22:13.252Z,48.37
2022-11-27T23:24:58.459Z,48.25
2022-11-27T23:27:44.936Z,48.23
2022-11-27T23:30:30.484Z,48.13
2022-11-27T23:33:15.862Z,48.15
2022-11-27T23:36:02.306Z,48.08
2022-11-27T23:38:47.721Z,48.11
2022-11-27T23:41:33.387Z,47.96
2022-11-27T23:44:18.829Z,47.99
2022-11-27T23:47:04.304Z,47.81
2022-11-27T23:49:50.011Z,47.80
2022-11-27T23:52:35.371Z,47.78
2022-11-27T23:55:20.634Z,47.77
2022-11-27T23:58:05.867Z,47.72
